Time;durP1;ratioP1;P1;durP2;ratioP2;P2;SDS_P1;SDS_P2;PMS_P1;PMS_P2;Temp;Humidity;BMP_temperature;BMP_pressure;BME280_temperature;BME280_humidity;BME280_pressure;Samples;Min_cycle;Max_cycle;Signal;HPM_P1;HPM_P2
2023/07/11 00:01:00;;;;;;;7.00;3.58;;;;;;;20.25;75.01;101549.97;5051470;28;20029;-77
2023/07/11 00:03:25;;;;;;;8.95;3.05;;;;;;;20.26;75.51;101553.50;5051333;28;20075;-77
2023/07/11 00:05:59;;;;;;;6.55;3.92;;;;;;;20.22;75.47;101550.44;5051247;28;20534;-77
2023/07/11 00:08:24;;;;;;;8.25;3.47;;;;;;;20.18;75.78;101549.31;5051314;28;20384;-77
2023/07/11 00:10:50;;;;;;;8.57;3.70;;;;;;;20.16;75.87;101547.91;5050525;28;20029;-77
2023/07/11 00:13:15;;;;;;;6.35;3.50;;;;;;;20.14;75.92;101546.25;5051199;28;20039;-78
2023/07/11 00:15:40;;;;;;;6.78;3.72;;;;;;;20.11;76.15;101545.91;5032957;28;20029;-77
2023/07/11 00:18:06;;;;;;;6.60;3.92;;;;;;;20.04;76.84;101534.41;5032521;28;20073;-77
2023/07/11 00:20:31;;;;;;;8.45;3.63;;;;;;;20.03;76.75;101535.47;5044540;28;20040;-77
2023/07/11 00:22:56;;;;;;;5.25;3.53;;;;;;;20.00;76.78;101531.38;5051403;28;20033;-78
2023/07/11 00:25:22;;;;;;;9.80;4.57;;;;;;;20.01;76.72;101530.28;5048213;28;20040;-77
2023/07/11 00:27:47;;;;;;;7.93;4.47;;;;;;;20.01;76.43;101524.06;5032005;28;20148;-78
2023/07/11 00:30:13;;;;;;;8.15;4.13;;;;;;;20.02;76.62;101531.16;5031671;28;20036;-78
2023/07/11 00:32:38;;;;;;;8.73;4.78;;;;;;;20.03;76.89;101524.66;5034587;28;20120;-78
2023/07/11 00:35:04;;;;;;;4.90;3.25;;;;;;;20.04;76.93;101531.69;5013406;28;20065;-78
2023/07/11 00:37:29;;;;;;;10.75;4.03;;;;;;;20.04;77.13;101526.28;5013759;28;20378;-78
2023/07/11 00:39:54;;;;;;;6.35;3.83;;;;;;;20.00;77.17;101523.25;5031812;28;20037;-78
2023/07/11 00:42:20;;;;;;;4.25;3.15;;;;;;;19.98;77.79;101519.13;5013842;28;20061;-78
2023/07/11 00:44:53;;;;;;;9.93;4.32;;;;;;;19.98;77.31;101528.09;5013862;28;20029;-76
2023/07/11 00:47:19;;;;;;;8.10;3.95;;;;;;;19.93;77.77;101525.28;5031561;28;20061;-77
2023/07/11 00:49:47;;;;;;;6.00;3.30;;;;;;;19.89;78.48;101526.84;5036121;28;20033;-77
2023/07/11 00:52:14;;;;;;;6.80;3.22;;;;;;;19.82;82.46;101523.44;5031491;28;20029;-78
2023/07/11 00:54:42;;;;;;;7.45;3.35;;;;;;;19.77;82.66;101526.06;5013465;28;20053;-77
2023/07/11 00:57:09;;;;;;;7.45;3.30;;;;;;;19.68;83.50;101522.94;5044377;28;20087;-77
2023/07/11 00:59:35;;;;;;;7.00;3.30;;;;;;;19.53;84.37;101528.00;5046013;28;20373;-77
2023/07/11 01:02:05;;;;;;;8.52;3.88;;;;;;;19.44;86.26;101522.97;5025968;28;20079;-77
2023/07/11 01:04:31;;;;;;;7.75;3.70;;;;;;;19.38;85.69;101528.50;5050500;28;20546;-77
2023/07/11 01:06:56;;;;;;;9.50;3.55;;;;;;;19.39;86.34;101522.03;5050551;28;20041;-77
2023/07/11 01:09:22;;;;;;;8.70;3.67;;;;;;;19.37;87.31;101532.28;5032302;28;20531;-77
2023/07/11 01:11:57;;;;;;;5.57;3.08;;;;;;;19.31;87.80;101525.09;5050268;28;20025;-78
2023/07/11 01:14:24;;;;;;;6.25;4.03;;;;;;;19.26;87.44;101526.66;5031574;28;20021;-77
2023/07/11 01:16:49;;;;;;;7.68;3.92;;;;;;;19.27;88.08;101528.28;5030987;28;20581;-77
2023/07/11 01:19:15;;;;;;;5.80;3.30;;;;;;;19.21;89.00;101523.84;5037647;28;20027;-77
2023/07/11 01:21:40;;;;;;;4.60;3.55;;;;;;;19.20;88.70;101527.59;5004444;28;20108;-75
2023/07/11 01:24:06;;;;;;;9.00;4.13;;;;;;;19.12;89.80;101521.72;5039720;28;20476;-77
2023/07/11 01:26:31;;;;;;;7.00;3.35;;;;;;;19.13;89.67;101524.19;5032172;28;20096;-77
2023/07/11 01:28:56;;;;;;;9.23;4.45;;;;;;;19.00;89.02;101519.03;5050156;28;20032;-78
2023/07/11 01:31:22;;;;;;;9.20;3.55;;;;;;;18.94;90.74;101517.25;5043016;28;20443;-77
2023/07/11 01:33:48;;;;;;;7.53;4.13;;;;;;;18.93;91.05;101519.16;5030878;28;20083;-77
2023/07/11 01:36:13;;;;;;;7.50;3.95;;;;;;;18.79;91.82;101515.88;5031545;28;20037;-77
2023/07/11 01:38:39;;;;;;;9.68;4.15;;;;;;;18.74;93.41;101513.03;5030736;28;20064;-77
2023/07/11 01:41:04;;;;;;;6.82;3.53;;;;;;;18.64;94.29;101515.47;5043390;28;20060;-77
2023/07/11 01:43:29;;;;;;;6.88;4.15;;;;;;;18.46;95.00;101511.00;5046779;28;20029;-77
2023/07/11 01:45:55;;;;;;;8.50;4.10;;;;;;;18.34;94.92;101513.69;5035351;28;20032;-77
2023/07/11 01:48:20;;;;;;;7.07;3.90;;;;;;;18.20;95.47;101506.03;5037600;28;20029;-77
2023/07/11 01:50:46;;;;;;;7.25;4.07;;;;;;;18.11;96.56;101490.16;5049047;28;20041;-77
2023/07/11 01:53:11;;;;;;;6.88;3.75;;;;;;;18.06;96.77;101492.72;5049302;28;20052;-77
2023/07/11 01:55:37;;;;;;;6.30;4.25;;;;;;;18.04;96.61;101488.59;5049353;28;20115;-77
2023/07/11 01:58:02;;;;;;;6.72;4.65;;;;;;;18.05;97.28;101479.44;5049700;28;20048;-76
2023/07/11 02:00:27;;;;;;;11.02;5.35;;;;;;;18.00;98.39;101476.63;5049237;28;20029;-77
2023/07/11 02:02:53;;;;;;;8.43;5.25;;;;;;;17.95;96.94;101478.16;5049214;28;20040;-77
2023/07/11 02:05:20;;;;;;;4.93;3.83;;;;;;;17.94;97.99;101481.88;5049390;28;20040;-77
2023/07/11 02:07:46;;;;;;;9.82;5.20;;;;;;;17.93;98.44;101479.44;5036964;28;20030;-77
2023/07/11 02:10:11;;;;;;;7.30;4.82;;;;;;;17.89;98.98;101476.38;5030059;28;20032;-76
2023/07/11 02:12:37;;;;;;;6.18;4.45;;;;;;;17.92;98.38;101469.66;5037068;28;20427;-77
2023/07/11 02:15:02;;;;;;;5.63;4.05;;;;;;;17.86;98.89;101468.72;5030065;28;20049;-77
2023/07/11 02:17:28;;;;;;;7.38;4.40;;;;;;;17.79;98.71;101456.34;5039233;28;20032;-77
2023/07/11 02:19:53;;;;;;;8.77;5.28;;;;;;;17.79;99.45;101464.44;5048927;28;20040;-77
2023/07/11 02:22:18;;;;;;;7.00;4.30;;;;;;;17.77;98.52;101463.88;5038598;28;20041;-76
2023/07/11 02:24:44;;;;;;;9.95;4.97;;;;;;;17.73;98.43;101467.00;5048281;28;20021;-77
2023/07/11 02:27:09;;;;;;;9.63;5.75;;;;;;;17.71;98.27;101462.88;5030934;28;20039;-77
2023/07/11 02:29:35;;;;;;;9.93;4.38;;;;;;;17.65;98.13;101458.41;5048928;28;20033;-77
2023/07/11 02:32:00;;;;;;;8.77;4.50;;;;;;;17.63;98.73;101452.41;5048774;28;20307;-77
2023/07/11 02:34:26;;;;;;;8.80;4.55;;;;;;;17.59;99.27;101448.53;5028854;28;20069;-77
2023/07/11 02:36:51;;;;;;;7.57;5.03;;;;;;;17.60;99.27;101451.00;5029585;28;20088;-77
2023/07/11 02:39:17;;;;;;;7.25;4.75;;;;;;;17.58;99.73;101445.03;5029548;28;20060;-76
2023/07/11 02:41:42;;;;;;;8.80;5.60;;;;;;;17.59;99.55;101443.16;5032083;28;20118;-77
2023/07/11 02:44:08;;;;;;;7.22;5.07;;;;;;;17.64;99.12;101435.19;5029355;28;20100;-77
2023/07/11 02:46:33;;;;;;;7.47;5.50;;;;;;;17.62;98.93;101432.72;5029597;28;20075;-77
2023/07/11 02:48:59;;;;;;;11.35;6.22;;;;;;;17.65;99.11;101428.75;5029247;28;20034;-76
2023/07/11 02:51:24;;;;;;;11.77;5.95;;;;;;;17.70;98.96;101431.56;5029520;28;20040;-77
2023/07/11 02:53:50;;;;;;;11.52;6.35;;;;;;;17.70;99.16;101427.00;5029242;28;20053;-77
2023/07/11 02:56:16;;;;;;;14.38;7.63;;;;;;;17.72;98.99;101424.06;5044560;28;20383;-77
2023/07/11 02:58:41;;;;;;;11.90;7.18;;;;;;;17.58;99.21;101399.19;5027040;28;20598;-77
2023/07/11 03:01:07;;;;;;;12.23;6.78;;;;;;;17.61;99.14;101406.00;5048560;28;20033;-77
2023/07/11 03:03:32;;;;;;;13.70;7.25;;;;;;;17.61;98.90;101406.81;5033822;28;20112;-77
2023/07/11 03:05:58;;;;;;;11.32;6.60;;;;;;;17.59;99.06;101397.28;5042117;28;20040;-77
2023/07/11 03:08:24;;;;;;;12.43;6.78;;;;;;;17.62;99.05;101399.53;5038036;28;20064;-77
2023/07/11 03:10:50;;;;;;;13.90;8.23;;;;;;;17.58;99.00;101396.47;5035529;28;20033;-77
2023/07/11 03:13:15;;;;;;;8.32;6.45;;;;;;;17.59;99.07;101392.72;5011473;28;20037;-77
2023/07/11 03:15:41;;;;;;;12.82;7.35;;;;;;;17.58;99.11;101392.94;5029183;28;20029;-77
2023/07/11 03:18:07;;;;;;;14.15;7.07;;;;;;;17.61;99.16;101390.63;5011423;28;20029;-77
2023/07/11 03:20:40;;;;;;;10.68;7.68;;;;;;;17.59;99.18;101389.19;5029179;28;20041;-77
2023/07/11 03:23:07;;;;;;;13.45;6.60;;;;;;;17.52;99.31;101381.19;5047988;28;20039;-77
2023/07/11 03:25:33;;;;;;;12.93;6.68;;;;;;;17.50;99.34;101380.59;5030198;28;20080;-77
2023/07/11 03:27:58;;;;;;;15.52;7.20;;;;;;;17.54;99.54;101389.88;5039456;28;20479;-77
2023/07/11 03:30:24;;;;;;;11.98;7.13;;;;;;;17.52;99.69;101386.59;5029062;28;20037;-77
2023/07/11 03:32:49;;;;;;;11.55;6.78;;;;;;;17.52;99.77;101382.00;5037588;28;20111;-77
2023/07/11 03:35:15;;;;;;;12.23;7.00;;;;;;;17.49;99.99;101376.25;5048005;28;20021;-77
2023/07/11 03:37:40;;;;;;;9.80;6.93;;;;;;;17.49;100.00;101379.78;5048000;28;20064;-77
2023/07/11 03:40:06;;;;;;;11.07;6.82;;;;;;;17.47;100.00;101375.66;5042475;28;20374;-77
2023/07/11 03:42:31;;;;;;;11.07;7.35;;;;;;;17.48;100.00;101378.16;5011209;28;20180;-77
2023/07/11 03:44:57;;;;;;;13.88;7.22;;;;;;;17.52;100.00;101378.50;5027032;28;20540;-77
2023/07/11 03:47:23;;;;;;;10.18;6.47;;;;;;;17.47;100.00;101383.75;5047805;28;20033;-78
2023/07/11 03:49:48;;;;;;;9.68;7.13;;;;;;;17.48;100.00;101380.84;5043093;28;20029;-77
2023/07/11 03:52:14;;;;;;;10.73;6.72;;;;;;;17.49;100.00;101381.66;5046013;28;20400;-77
2023/07/11 03:54:39;;;;;;;14.48;6.97;;;;;;;17.42;100.00;101372.84;5020565;28;20061;-77
2023/07/11 03:57:05;;;;;;;11.13;7.25;;;;;;;17.48;100.00;101380.84;5042017;28;20032;-78
2023/07/11 03:59:31;;;;;;;12.60;7.20;;;;;;;17.47;100.00;101376.47;5047720;28;20029;-77
2023/07/11 04:01:56;;;;;;;15.20;6.65;;;;;;;17.52;100.00;101376.63;5021708;28;20033;-77
2023/07/11 04:04:22;;;;;;;10.23;6.22;;;;;;;17.61;99.74;101382.53;5038545;28;20044;-77
2023/07/11 04:06:47;;;;;;;11.40;5.50;;;;;;;17.68;99.24;101377.00;5047777;28;20033;-76
2023/07/11 04:09:12;;;;;;;10.88;6.15;;;;;;;17.65;99.20;101364.00;5047709;28;20064;-77
2023/07/11 04:11:38;;;;;;;11.82;7.25;;;;;;;17.64;99.20;101356.97;5051174;28;20024;-77
2023/07/11 04:14:03;;;;;;;8.60;5.13;;;;;;;17.75;98.93;101365.06;5034206;28;20068;-77
2023/07/11 04:16:28;;;;;;;9.48;6.22;;;;;;;17.81;98.54;101357.13;5032098;28;20040;-77
2023/07/11 04:18:54;;;;;;;10.20;6.00;;;;;;;17.81;98.49;101365.22;5004776;28;20030;-76
2023/07/11 04:21:19;;;;;;;7.78;5.45;;;;;;;17.87;98.14;101357.03;5040144;28;20036;-77
2023/07/11 04:23:46;;;;;;;13.50;6.35;;;;;;;17.86;98.05;101358.06;5022425;28;20036;-77
2023/07/11 04:26:11;;;;;;;12.00;6.13;;;;;;;17.92;97.78;101356.31;5050960;28;20086;-77
2023/07/11 04:28:36;;;;;;;27.20;8.00;;;;;;;17.87;97.92;101346.25;5050908;28;20052;-77
2023/07/11 04:31:02;;;;;;;10.13;6.45;;;;;;;17.82;97.33;101326.41;5033136;28;20032;-77
2023/07/11 04:33:28;;;;;;;12.13;7.43;;;;;;;18.02;97.06;101353.88;5046077;28;20514;-77
2023/07/11 04:35:53;;;;;;;9.68;6.05;;;;;;;18.01;97.27;101340.63;5036703;28;20037;-77
2023/07/11 04:38:19;;;;;;;9.85;6.22;;;;;;;18.02;96.70;101331.47;5014075;28;20416;-77
2023/07/11 04:40:45;;;;;;;10.73;5.50;;;;;;;18.12;96.18;101337.91;5043923;28;20550;-77
2023/07/11 04:43:10;;;;;;;17.75;7.07;;;;;;;18.17;95.97;101339.91;5031758;28;20508;-77
2023/07/11 04:45:36;;;;;;;11.70;5.97;;;;;;;18.25;95.86;101339.56;5031858;28;20041;-77
2023/07/11 04:48:01;;;;;;;9.68;6.85;;;;;;;18.29;95.87;101334.53;5031722;28;20037;-77
2023/07/11 04:50:27;;;;;;;14.85;5.80;;;;;;;18.36;95.06;101335.19;5031435;28;20084;-77
2023/07/11 04:52:52;;;;;;;12.25;5.65;;;;;;;18.39;94.42;101330.16;5026646;28;20044;-76
2023/07/11 04:55:18;;;;;;;12.68;5.40;;;;;;;18.45;93.62;101327.56;5050475;28;20037;-77
2023/07/11 04:57:43;;;;;;;10.63;5.68;;;;;;;18.50;93.45;101316.88;5050402;28;20032;-77
2023/07/11 05:00:09;;;;;;;7.88;5.50;;;;;;;18.60;92.60;101323.31;5033632;28;20112;-77
2023/07/11 05:02:35;;;;;;;11.55;5.95;;;;;;;18.60;92.72;101326.00;5047937;28;20044;-77
2023/07/11 05:05:00;;;;;;;8.57;5.05;;;;;;;18.70;91.92;101324.56;4999942;28;20030;-78
2023/07/11 05:07:25;;;;;;;8.43;4.70;;;;;;;18.77;91.91;101323.41;5031319;28;20041;-77
2023/07/11 05:09:51;;;;;;;8.20;5.53;;;;;;;18.85;90.65;101321.38;5036341;28;20043;-77
2023/07/11 05:12:16;;;;;;;8.75;5.40;;;;;;;18.92;90.21;101314.78;5035806;28;20037;-77
2023/07/11 05:14:41;;;;;;;8.73;4.70;;;;;;;18.99;89.17;101309.22;5050384;28;20115;-78
2023/07/11 05:17:07;;;;;;;19.88;5.70;;;;;;;19.01;89.33;101309.81;5036061;28;20396;-77
2023/07/11 05:19:32;;;;;;;11.52;5.38;;;;;;;19.11;88.33;101307.28;5031116;28;20033;-77
2023/07/11 05:21:58;;;;;;;6.65;4.90;;;;;;;19.10;87.98;101300.25;5023712;28;20029;-77
2023/07/11 05:24:23;;;;;;;9.48;5.43;;;;;;;19.21;87.67;101290.44;5041406;28;20473;-77
2023/07/11 05:26:49;;;;;;;6.90;4.95;;;;;;;19.27;87.58;101290.28;5040152;28;20457;-77
2023/07/11 05:29:14;;;;;;;9.65;4.40;;;;;;;19.39;86.04;101297.53;5041129;28;20029;-76
2023/07/11 05:31:39;;;;;;;11.65;5.35;;;;;;;19.43;86.78;101287.84;5038771;28;20035;-77
2023/07/11 05:34:05;;;;;;;15.70;5.28;;;;;;;19.51;86.06;101287.44;5043146;28;20124;-77
2023/07/11 05:36:34;;;;;;;9.32;4.60;;;;;;;19.57;84.81;101291.88;5050149;28;20040;-77
2023/07/11 05:39:04;;;;;;;6.78;4.10;;;;;;;19.60;84.03;101283.25;5049660;28;20029;-78
2023/07/11 05:41:30;;;;;;;8.90;4.47;;;;;;;19.69;84.20;101289.09;5042358;28;20025;-77
2023/07/11 05:43:56;;;;;;;6.68;3.97;;;;;;;19.78;83.15;101287.63;5038294;28;20520;-77
2023/07/11 05:46:25;;;;;;;7.30;4.30;;;;;;;19.83;83.09;101281.44;5030891;28;20025;-77
2023/07/11 05:48:52;;;;;;;11.98;4.45;;;;;;;19.93;83.19;101292.44;5042628;28;20115;-77
2023/07/11 05:51:18;;;;;;;9.80;4.82;;;;;;;20.01;83.26;101283.88;5036086;28;20025;-77
2023/07/11 05:53:44;;;;;;;6.97;3.90;;;;;;;20.09;82.28;101283.47;5030637;28;20096;-77
2023/07/11 05:56:10;;;;;;;9.30;5.80;;;;;;;20.07;81.31;101271.25;5030403;28;20875;-78
2023/07/11 05:58:36;;;;;;;6.22;3.92;;;;;;;20.31;80.42;101279.97;4996324;28;20029;-77
2023/07/11 06:01:01;;;;;;;12.93;4.70;;;;;;;20.52;79.07;101272.91;5032277;28;20031;-77
2023/07/11 06:03:29;;;;;;;9.35;4.20;;;;;;;21.18;77.12;101275.53;5031810;28;20029;-77
2023/07/11 06:06:02;;;;;;;9.15;4.38;;;;;;;22.52;72.11;101273.47;5030194;28;20896;-77
2023/07/11 06:08:32;;;;;;;7.13;3.88;;;;;;;22.99;69.87;101271.75;5036087;28;20025;-77
2023/07/11 06:11:00;;;;;;;6.68;3.92;;;;;;;23.01;68.83;101268.75;5031450;28;20040;-78
2023/07/11 06:13:26;;;;;;;6.72;3.88;;;;;;;22.56;69.69;101262.91;5013105;28;20033;-77
2023/07/11 06:16:12;;;;;;;5.72;3.15;;;;;;;22.26;72.22;101263.59;5028948;28;20033;-77
2023/07/11 06:18:38;;;;;;;20.45;4.85;;;;;;;21.97;71.81;101268.56;5012116;28;20033;-77
2023/07/11 06:21:06;;;;;;;9.90;4.18;;;;;;;21.81;73.87;101268.47;5032135;28;20030;-77
2023/07/11 06:23:31;;;;;;;7.07;4.15;;;;;;;21.72;74.35;101266.50;5032775;28;20083;-77
2023/07/11 06:25:57;;;;;;;5.30;3.30;;;;;;;21.61;74.19;101252.88;5019766;28;20037;-78
2023/07/11 06:28:23;;;;;;;4.43;3.20;;;;;;;21.66;74.66;101260.22;5046176;28;20537;-77
2023/07/11 06:30:49;;;;;;;5.85;3.63;;;;;;;21.68;74.53;101255.34;5043105;28;20044;-78
2023/07/11 06:33:17;;;;;;;6.13;3.45;;;;;;;21.68;74.75;101252.63;5030861;28;20038;-78
2023/07/11 06:35:48;;;;;;;5.32;3.22;;;;;;;21.66;73.96;101249.34;5044514;28;20128;-74
2023/07/11 06:38:13;;;;;;;5.35;3.53;;;;;;;21.66;73.50;101246.66;5041978;28;20025;-77
2023/07/11 06:40:38;;;;;;;8.23;3.92;;;;;;;21.69;73.77;101245.31;5044584;28;20033;-77
2023/07/11 06:43:04;;;;;;;7.63;3.70;;;;;;;21.66;74.39;101233.06;5035909;28;20029;-77
2023/07/11 06:45:29;;;;;;;8.50;3.40;;;;;;;21.75;73.54;101247.81;5030831;28;20118;-77
2023/07/11 06:47:54;;;;;;;9.95;4.43;;;;;;;21.77;73.59;101242.09;5025479;28;20029;-77
2023/07/11 06:50:20;;;;;;;6.55;3.72;;;;;;;21.81;73.13;101241.31;5023024;28;20029;-78
2023/07/11 06:52:45;;;;;;;7.28;3.45;;;;;;;21.84;72.81;101246.22;5030716;28;20429;-77
2023/07/11 06:55:12;;;;;;;7.97;3.00;;;;;;;21.92;74.31;101244.91;5027559;28;20053;-77
2023/07/11 06:57:37;;;;;;;5.80;3.20;;;;;;;21.98;73.68;101241.16;5037870;28;20068;-77
2023/07/11 07:00:05;;;;;;;7.40;2.95;;;;;;;22.01;73.11;101237.91;5029224;28;20210;-77
2023/07/11 07:02:30;;;;;;;5.45;2.88;;;;;;;22.04;72.95;101237.38;5030284;28;20030;-77
2023/07/11 07:04:55;;;;;;;7.28;2.75;;;;;;;22.12;71.89;101237.97;5030503;28;20037;-77
2023/07/11 07:07:21;;;;;;;6.32;3.42;;;;;;;22.21;72.47;101234.50;5038475;28;20032;-77
2023/07/11 07:09:46;;;;;;;9.23;3.75;;;;;;;22.33;71.73;101242.44;5011103;28;20064;-77
2023/07/11 07:12:11;;;;;;;5.68;2.95;;;;;;;22.41;71.95;101239.19;5034149;28;20092;-77
2023/07/11 07:14:37;;;;;;;5.82;2.30;;;;;;;22.52;71.16;101240.84;5034120;28;20063;-77
2023/07/11 07:17:03;;;;;;;8.55;3.58;;;;;;;22.65;71.63;101241.44;5030561;28;20076;-78
2023/07/11 07:19:29;;;;;;;4.72;2.80;;;;;;;22.75;70.77;101234.13;5014030;28;20045;-77
2023/07/11 07:21:54;;;;;;;6.03;2.78;;;;;;;22.78;69.33;101242.84;5035234;28;20481;-78
2023/07/11 07:24:19;;;;;;;5.20;2.65;;;;;;;22.81;68.95;101248.53;5011736;28;20045;-77
2023/07/11 07:26:45;;;;;;;6.53;2.95;;;;;;;22.86;67.14;101236.88;5029236;28;20029;-77
2023/07/11 07:29:10;;;;;;;5.47;2.55;;;;;;;22.92;68.30;101236.63;5029275;28;20560;-76
2023/07/11 07:31:35;;;;;;;7.72;2.50;;;;;;;23.06;66.13;101242.38;5032858;28;20040;-77
2023/07/11 07:34:01;;;;;;;5.80;2.72;;;;;;;23.21;67.30;101227.13;5048265;28;20029;-77
2023/07/11 07:36:26;;;;;;;5.32;2.85;;;;;;;23.31;65.86;101232.56;5030193;28;20041;-77
2023/07/11 07:38:51;;;;;;;9.45;3.30;;;;;;;23.36;65.63;101235.28;5017803;28;20065;-77
2023/07/11 07:41:18;;;;;;;5.95;2.45;;;;;;;23.36;64.59;101219.78;5029248;28;20057;-77
2023/07/11 07:43:44;;;;;;;6.43;2.70;;;;;;;23.52;65.91;101226.00;5036381;28;20021;-77
2023/07/11 07:46:13;;;;;;;7.22;2.60;;;;;;;23.63;63.63;101221.38;5052128;28;20025;-77
2023/07/11 07:48:38;;;;;;;6.25;2.30;;;;;;;23.71;63.20;101220.00;5051802;28;20116;-77
2023/07/11 07:51:09;;;;;;;11.50;3.35;;;;;;;23.75;62.41;101207.50;5052010;28;20378;-77
2023/07/11 07:53:35;;;;;;;5.83;2.27;;;;;;;23.89;63.89;101216.69;5046589;28;20061;-74
2023/07/11 07:56:06;;;;;;;6.53;2.22;;;;;;;24.01;62.68;101219.13;5044778;28;20287;-77
2023/07/11 07:58:32;;;;;;;7.97;2.08;;;;;;;24.09;59.82;101212.28;5045428;28;20025;-77
2023/07/11 08:00:57;;;;;;;8.27;3.00;;;;;;;24.19;62.11;101207.63;5040318;28;20028;-78
2023/07/11 08:03:22;;;;;;;13.60;3.25;;;;;;;24.25;61.79;101211.94;5047123;28;20025;-78
2023/07/11 08:05:48;;;;;;;8.88;2.83;;;;;;;24.37;59.98;101208.09;5042566;28;20044;-78
2023/07/11 08:08:13;;;;;;;5.57;2.58;;;;;;;24.43;59.14;101207.75;5037120;28;20079;-78
2023/07/11 08:10:38;;;;;;;10.23;3.25;;;;;;;24.56;58.27;101200.91;5043727;28;20358;-78
2023/07/11 08:13:04;;;;;;;11.52;3.17;;;;;;;24.84;56.86;101198.56;5023883;28;20542;-78
2023/07/11 08:15:29;;;;;;;9.85;3.00;;;;;;;25.76;55.16;101198.53;5043740;28;20037;-78
2023/07/11 08:17:55;;;;;;;12.60;2.50;;;;;;;26.83;51.61;101199.09;5042683;28;20072;-78
2023/07/11 08:20:20;;;;;;;19.52;3.90;;;;;;;28.18;48.39;101204.59;5045400;28;20013;-78
2023/07/11 08:22:45;;;;;;;6.50;2.22;;;;;;;30.26;41.50;101202.41;5046806;28;20064;-79
2023/07/11 08:25:11;;;;;;;6.22;1.70;;;;;;;31.29;39.33;101194.44;5025251;28;20037;-78
2023/07/11 08:27:37;;;;;;;6.03;1.90;;;;;;;31.79;37.07;101198.47;5043031;28;20495;-78
2023/07/11 08:30:03;;;;;;;9.60;2.88;;;;;;;33.09;35.28;101194.78;5042622;28;20044;-78
2023/07/11 08:32:29;;;;;;;3.53;1.63;;;;;;;34.17;32.51;101190.03;5040434;28;20033;-78
2023/07/11 08:34:54;;;;;;;6.32;1.80;;;;;;;34.54;32.05;101184.38;5042710;28;20383;-78
2023/07/11 08:37:19;;;;;;;6.15;1.90;;;;;;;34.08;32.92;101192.91;5043573;28;20036;-78
2023/07/11 08:39:45;;;;;;;8.00;2.40;;;;;;;34.60;31.66;101191.31;5035138;28;20022;-78
2023/07/11 08:42:22;;;;;;;7.18;2.65;;;;;;;35.61;31.47;101183.69;5044104;28;20275;-78
2023/07/11 08:45:18;;;;;;;2.50;1.92;;;;;;;34.86;33.24;101182.53;5036639;28;20104;-78
2023/07/11 08:47:53;;;;;;;4.82;1.95;;;;;;;33.80;33.48;101179.00;5051309;28;20028;-78
2023/07/11 08:50:25;;;;;;;6.00;1.77;;;;;;;34.57;32.62;101180.91;5040187;28;20432;-78
2023/07/11 08:52:57;;;;;;;16.80;3.17;;;;;;;35.19;31.01;101173.13;5037989;28;20469;-78
2023/07/11 08:55:25;;;;;;;;;;;;;;;36.23;33.78;101176.44;5038435;28;20067;-78
2023/07/11 08:58:17;;;;;;;19.77;3.65;;;;;;;35.36;32.94;101163.66;5041607;28;19916;-78
2023/07/11 09:00:46;;;;;;;3.83;1.80;;;;;;;33.83;32.49;101170.78;5029521;28;20041;-79
2023/07/11 09:03:30;;;;;;;5.00;1.70;;;;;;;33.58;33.94;101169.19;5038720;28;20373;-78
2023/07/11 09:06:14;;;;;;;2.90;1.58;;;;;;;33.36;34.84;101160.16;5031949;28;20182;-78
2023/07/11 09:08:43;;;;;;;3.90;1.85;;;;;;;31.74;35.33;101166.38;5047692;28;20032;-79
2023/07/11 09:11:20;;;;;;;6.22;2.58;;;;;;;30.42;37.56;101161.47;5044438;28;20017;-79
2023/07/11 09:14:18;;;;;;;4.60;1.92;;;;;;;29.54;41.28;101164.28;5040615;28;20032;-78
2023/07/11 09:17:01;;;;;;;5.60;1.70;;;;;;;28.78;42.02;101160.44;5035699;28;20102;-79
2023/07/11 09:20:00;;;;;;;7.05;2.08;;;;;;;28.45;44.65;101162.59;5034004;28;20101;-78
2023/07/11 09:22:54;;;;;;;4.72;1.98;;;;;;;28.19;45.97;101154.94;5041546;28;20442;-78
2023/07/11 09:25:33;;;;;;;10.65;2.70;;;;;;;28.28;47.29;101151.47;5037256;28;20025;-78
2023/07/11 09:28:07;;;;;;;4.97;1.90;;;;;;;28.35;45.72;101158.16;5034063;28;20033;-78
2023/07/11 09:30:58;;;;;;;6.13;2.05;;;;;;;28.31;45.15;101153.59;5030973;28;20029;-78
2023/07/11 09:33:30;;;;;;;5.93;2.20;;;;;;;28.24;46.60;101156.75;5031301;28;20497;-78
2023/07/11 09:35:56;;;;;;;7.35;2.28;;;;;;;28.04;45.89;101148.97;5034739;28;20075;-78
2023/07/11 09:38:31;;;;;;;5.50;2.60;;;;;;;27.93;46.19;101145.66;5037855;28;20140;-78
2023/07/11 09:41:14;;;;;;;3.47;1.80;;;;;;;27.95;46.77;101141.44;5038911;28;20065;-78
2023/07/11 09:43:39;;;;;;;6.85;2.10;;;;;;;27.97;46.17;101150.19;5034398;28;20021;-77
2023/07/11 09:46:22;;;;;;;11.40;2.22;;;;;;;27.74;46.57;101141.03;5032545;28;20120;-78
2023/07/11 09:48:52;;;;;;;7.43;2.47;;;;;;;27.66;48.35;101138.22;5031953;28;20045;-78
2023/07/11 09:51:24;;;;;;;9.05;3.92;;;;;;;27.71;46.18;101143.59;5036268;28;20113;-78
2023/07/11 09:53:53;;;;;;;7.03;2.45;;;;;;;27.96;44.87;101137.63;5030876;28;20107;-78
2023/07/11 09:56:19;;;;;;;49.50;5.75;;;;;;;28.00;44.28;101145.22;5045432;28;20025;-78
2023/07/11 09:58:57;;;;;;;7.45;3.08;;;;;;;28.04;43.90;101127.03;5030529;28;20491;-78
2023/07/11 10:01:26;;;;;;;8.65;3.15;;;;;;;28.13;43.63;101127.91;5034795;28;20039;-78
2023/07/11 10:03:57;;;;;;;7.00;2.30;;;;;;;28.27;44.20;101144.34;5032639;28;20427;-78
2023/07/11 10:06:41;;;;;;;55.30;7.55;;;;;;;28.32;43.24;101146.97;5032872;28;20057;-78
2023/07/11 10:09:30;;;;;;;7.15;2.75;;;;;;;28.10;44.56;101136.78;5042413;28;20036;-78
2023/07/11 10:11:59;;;;;;;6.18;2.60;;;;;;;27.82;45.12;101134.06;5018709;28;20042;-78
2023/07/11 10:14:29;;;;;;;7.82;2.83;;;;;;;27.84;46.38;101126.34;5036047;28;20021;-77
2023/07/11 10:16:56;;;;;;;8.35;2.50;;;;;;;27.85;46.07;101124.41;5047166;28;20111;-77
2023/07/11 10:19:21;;;;;;;3.33;1.95;;;;;;;27.99;46.24;101116.19;5035366;28;20026;-77
2023/07/11 10:21:49;;;;;;;4.15;2.40;;;;;;;27.80;46.74;101128.06;5040793;28;20078;-78
2023/07/11 10:24:18;;;;;;;3.72;2.05;;;;;;;27.80;46.98;101124.50;5029776;28;20029;-77
2023/07/11 10:26:46;;;;;;;10.55;3.45;;;;;;;27.98;48.41;101107.13;5047279;28;20025;-76
2023/07/11 10:29:18;;;;;;;5.80;2.95;;;;;;;28.07;47.11;101112.72;5045509;28;20087;-75
2023/07/11 10:31:52;;;;;;;6.25;2.00;;;;;;;27.98;45.94;101115.34;5020059;28;20028;-75
2023/07/11 10:34:41;;;;;;;5.57;1.90;;;;;;;28.04;46.70;101114.13;5033067;28;20028;-74
2023/07/11 10:37:15;;;;;;;8.88;2.65;;;;;;;28.09;47.28;101105.00;5011435;28;20396;-73
2023/07/11 10:39:51;;;;;;;4.35;2.53;;;;;;;28.16;46.70;101114.44;5034107;28;20017;-74
2023/07/11 10:42:28;;;;;;;11.85;3.08;;;;;;;27.97;46.87;101109.06;5043989;28;20028;-75
2023/07/11 10:45:17;;;;;;;5.68;2.22;;;;;;;27.96;48.33;101101.97;5043495;28;20025;-75
2023/07/11 10:47:55;;;;;;;8.35;2.25;;;;;;;28.05;46.73;101098.50;5013266;28;20506;-75
2023/07/11 10:50:32;;;;;;;7.88;2.63;;;;;;;28.30;47.87;101095.16;5029766;28;20068;-75
2023/07/11 10:53:03;;;;;;;8.20;2.63;;;;;;;28.52;46.03;101090.84;5029857;28;20033;-75
2023/07/11 10:55:41;;;;;;;6.00;2.58;;;;;;;28.61;45.59;101089.78;5029354;28;20080;-75
2023/07/11 10:58:09;;;;;;;8.90;2.75;;;;;;;28.57;45.42;101088.78;5011755;28;21094;-75
2023/07/11 11:00:56;;;;;;;5.25;2.20;;;;;;;28.37;46.00;101084.59;5029289;28;20036;-75
2023/07/11 11:03:33;;;;;;;4.10;1.90;;;;;;;28.19;46.31;101085.53;5029695;28;20083;-74
2023/07/11 11:06:27;;;;;;;9.02;3.25;;;;;;;28.05;46.69;101074.63;5029642;28;20037;-75
2023/07/11 11:09:19;;;;;;;4.03;2.22;;;;;;;28.07;46.41;101085.28;5029308;28;20550;-76
2023/07/11 11:12:07;;;;;;;6.32;2.45;;;;;;;27.99;46.84;101067.63;5029404;28;20039;-75
2023/07/11 11:14:45;;;;;;;8.15;2.50;;;;;;;27.88;46.60;101082.69;5029456;28;20124;-75
2023/07/11 11:17:23;;;;;;;7.68;2.80;;;;;;;27.87;47.68;101073.63;5029332;28;20044;-75
2023/07/11 11:20:18;;;;;;;4.15;2.13;;;;;;;28.13;49.75;101067.59;5032021;28;20374;-75
2023/07/11 11:22:43;;;;;;;5.15;3.00;;;;;;;28.37;47.13;101062.63;5033604;28;20882;-75
2023/07/11 11:25:45;;;;;;;9.57;2.60;;;;;;;28.52;46.64;101055.16;5015524;28;20064;-75
2023/07/11 11:28:27;;;;;;;6.35;2.03;;;;;;;28.58;46.75;101054.72;5032950;28;20080;-75
2023/07/11 11:31:08;;;;;;;7.97;2.53;;;;;;;28.82;47.85;101061.81;5033306;28;20030;-75